sensor_id;sensor_type;location;lat;lon;timestamp;P1;durP1;ratioP1;P2;durP2;ratioP2
10769;SDS011;5437;50.852;4.438;2023-04-03T00:02:15;10.15;;;7.75;;
10769;SDS011;5437;50.852;4.438;2023-04-03T00:04:41;11.40;;;7.95;;
10769;SDS011;5437;50.852;4.438;2023-04-03T00:07:07;9.57;;;7.68;;
10769;SDS011;5437;50.852;4.438;2023-04-03T00:09:33;10.25;;;7.45;;
10769;SDS011;5437;50.852;4.438;2023-04-03T00:11:59;8.38;;;7.40;;
10769;SDS011;5437;50.852;4.438;2023-04-03T00:14:25;9.10;;;7.28;;
10769;SDS011;5437;50.852;4.438;2023-04-03T00:16:52;8.65;;;7.38;;
10769;SDS011;5437;50.852;4.438;2023-04-03T00:19:18;9.10;;;7.90;;
10769;SDS011;5437;50.852;4.438;2023-04-03T00:21:44;8.38;;;7.40;;
10769;SDS011;5437;50.852;4.438;2023-04-03T00:24:10;8.98;;;7.00;;
10769;SDS011;5437;50.852;4.438;2023-04-03T00:26:36;10.68;;;7.40;;
10769;SDS011;5437;50.852;4.438;2023-04-03T00:29:03;9.10;;;6.85;;
10769;SDS011;5437;50.852;4.438;2023-04-03T00:31:28;8.60;;;7.22;;
10769;SDS011;5437;50.852;4.438;2023-04-03T00:33:54;7.95;;;7.15;;
10769;SDS011;5437;50.852;4.438;2023-04-03T00:36:21;7.88;;;7.05;;
10769;SDS011;5437;50.852;4.438;2023-04-03T00:38:47;8.98;;;7.45;;
10769;SDS011;5437;50.852;4.438;2023-04-03T00:41:13;10.27;;;7.20;;
10769;SDS011;5437;50.852;4.438;2023-04-03T00:43:39;8.48;;;6.68;;
10769;SDS011;5437;50.852;4.438;2023-04-03T00:46:05;8.60;;;6.95;;
10769;SDS011;5437;50.852;4.438;2023-04-03T00:48:39;8.15;;;6.95;;
10769;SDS011;5437;50.852;4.438;2023-04-03T00:51:07;7.15;;;6.43;;
10769;SDS011;5437;50.852;4.438;2023-04-03T00:53:54;7.82;;;6.72;;
10769;SDS011;5437;50.852;4.438;2023-04-03T00:56:21;9.50;;;6.20;;
10769;SDS011;5437;50.852;4.438;2023-04-03T00:58:51;8.25;;;6.32;;
10769;SDS011;5437;50.852;4.438;2023-04-03T01:01:24;8.15;;;6.38;;
10769;SDS011;5437;50.852;4.438;2023-04-03T01:03:50;7.57;;;6.75;;
10769;SDS011;5437;50.852;4.438;2023-04-03T01:06:17;7.90;;;6.32;;
10769;SDS011;5437;50.852;4.438;2023-04-03T01:08:44;7.95;;;6.60;;
10769;SDS011;5437;50.852;4.438;2023-04-03T01:11:11;8.32;;;6.30;;
10769;SDS011;5437;50.852;4.438;2023-04-03T01:13:37;7.88;;;6.38;;
10769;SDS011;5437;50.852;4.438;2023-04-03T01:16:05;9.27;;;6.30;;
10769;SDS011;5437;50.852;4.438;2023-04-03T01:18:31;7.88;;;6.68;;
10769;SDS011;5437;50.852;4.438;2023-04-03T01:26:32;7.43;;;5.93;;
10769;SDS011;5437;50.852;4.438;2023-04-03T01:28:59;8.30;;;6.40;;
10769;SDS011;5437;50.852;4.438;2023-04-03T01:33:51;8.88;;;6.55;;
10769;SDS011;5437;50.852;4.438;2023-04-03T01:36:19;9.07;;;6.35;;
10769;SDS011;5437;50.852;4.438;2023-04-03T01:38:46;9.52;;;6.45;;
10769;SDS011;5437;50.852;4.438;2023-04-03T01:41:12;6.93;;;6.15;;
10769;SDS011;5437;50.852;4.438;2023-04-03T01:43:38;7.28;;;6.13;;
10769;SDS011;5437;50.852;4.438;2023-04-03T01:46:04;9.05;;;6.80;;
10769;SDS011;5437;50.852;4.438;2023-04-03T01:48:30;6.78;;;6.07;;
10769;SDS011;5437;50.852;4.438;2023-04-03T01:50:56;8.13;;;6.07;;
10769;SDS011;5437;50.852;4.438;2023-04-03T01:53:22;7.68;;;6.28;;
10769;SDS011;5437;50.852;4.438;2023-04-03T01:55:48;8.02;;;6.30;;
10769;SDS011;5437;50.852;4.438;2023-04-03T01:58:14;8.88;;;6.68;;
10769;SDS011;5437;50.852;4.438;2023-04-03T02:00:40;7.50;;;6.20;;
10769;SDS011;5437;50.852;4.438;2023-04-03T02:03:06;8.98;;;6.32;;
10769;SDS011;5437;50.852;4.438;2023-04-03T02:05:32;7.00;;;6.30;;
10769;SDS011;5437;50.852;4.438;2023-04-03T02:07:58;8.13;;;6.28;;
10769;SDS011;5437;50.852;4.438;2023-04-03T02:10:25;8.15;;;6.45;;
10769;SDS011;5437;50.852;4.438;2023-04-03T02:12:51;7.38;;;6.22;;
10769;SDS011;5437;50.852;4.438;2023-04-03T02:15:17;10.38;;;6.28;;
10769;SDS011;5437;50.852;4.438;2023-04-03T02:17:43;6.35;;;5.60;;
10769;SDS011;5437;50.852;4.438;2023-04-03T02:20:10;7.25;;;5.72;;
10769;SDS011;5437;50.852;4.438;2023-04-03T02:22:36;7.05;;;6.03;;
10769;SDS011;5437;50.852;4.438;2023-04-03T02:25:02;7.05;;;6.13;;
10769;SDS011;5437;50.852;4.438;2023-04-03T02:27:28;7.30;;;6.47;;
10769;SDS011;5437;50.852;4.438;2023-04-03T02:29:54;7.30;;;6.15;;
10769;SDS011;5437;50.852;4.438;2023-04-03T02:32:20;6.78;;;6.00;;
10769;SDS011;5437;50.852;4.438;2023-04-03T02:34:46;6.85;;;6.03;;
10769;SDS011;5437;50.852;4.438;2023-04-03T02:37:12;7.22;;;6.30;;
10769;SDS011;5437;50.852;4.438;2023-04-03T02:39:38;7.63;;;6.18;;
10769;SDS011;5437;50.852;4.438;2023-04-03T02:42:04;6.55;;;5.95;;
10769;SDS011;5437;50.852;4.438;2023-04-03T02:44:30;9.13;;;6.05;;
10769;SDS011;5437;50.852;4.438;2023-04-03T02:46:56;8.52;;;5.88;;
10769;SDS011;5437;50.852;4.438;2023-04-03T02:49:22;7.10;;;6.45;;
10769;SDS011;5437;50.852;4.438;2023-04-03T02:51:48;7.20;;;6.20;;
10769;SDS011;5437;50.852;4.438;2023-04-03T02:54:16;9.25;;;6.47;;
10769;SDS011;5437;50.852;4.438;2023-04-03T02:56:42;8.02;;;6.30;;
10769;SDS011;5437;50.852;4.438;2023-04-03T02:59:08;7.07;;;6.32;;
10769;SDS011;5437;50.852;4.438;2023-04-03T03:01:34;8.57;;;6.07;;
10769;SDS011;5437;50.852;4.438;2023-04-03T03:04:00;7.97;;;6.40;;
10769;SDS011;5437;50.852;4.438;2023-04-03T03:06:26;8.02;;;6.07;;
10769;SDS011;5437;50.852;4.438;2023-04-03T03:08:52;6.75;;;6.05;;
10769;SDS011;5437;50.852;4.438;2023-04-03T03:11:18;9.07;;;6.65;;
10769;SDS011;5437;50.852;4.438;2023-04-03T03:13:44;8.68;;;6.15;;
10769;SDS011;5437;50.852;4.438;2023-04-03T03:16:11;9.93;;;6.15;;
10769;SDS011;5437;50.852;4.438;2023-04-03T03:18:37;6.85;;;6.20;;
10769;SDS011;5437;50.852;4.438;2023-04-03T03:21:03;7.82;;;6.22;;
10769;SDS011;5437;50.852;4.438;2023-04-03T03:23:30;8.32;;;6.30;;
10769;SDS011;5437;50.852;4.438;2023-04-03T03:26:04;9.18;;;6.25;;
10769;SDS011;5437;50.852;4.438;2023-04-03T03:28:30;7.97;;;6.22;;
10769;SDS011;5437;50.852;4.438;2023-04-03T03:30:57;7.18;;;6.47;;
10769;SDS011;5437;50.852;4.438;2023-04-03T03:33:23;8.05;;;6.32;;
10769;SDS011;5437;50.852;4.438;2023-04-03T03:35:50;7.38;;;5.97;;
10769;SDS011;5437;50.852;4.438;2023-04-03T03:38:16;8.95;;;6.43;;
10769;SDS011;5437;50.852;4.438;2023-04-03T03:40:42;7.13;;;6.43;;
10769;SDS011;5437;50.852;4.438;2023-04-03T03:43:08;7.28;;;6.35;;
10769;SDS011;5437;50.852;4.438;2023-04-03T03:45:34;7.32;;;6.25;;
10769;SDS011;5437;50.852;4.438;2023-04-03T03:48:00;7.05;;;6.35;;
10769;SDS011;5437;50.852;4.438;2023-04-03T03:50:26;8.27;;;6.32;;
10769;SDS011;5437;50.852;4.438;2023-04-03T03:52:52;7.03;;;6.32;;
10769;SDS011;5437;50.852;4.438;2023-04-03T03:55:18;7.32;;;6.60;;
10769;SDS011;5437;50.852;4.438;2023-04-03T03:57:45;9.63;;;6.97;;
10769;SDS011;5437;50.852;4.438;2023-04-03T04:00:11;8.68;;;6.22;;
10769;SDS011;5437;50.852;4.438;2023-04-03T04:02:37;7.72;;;6.70;;
10769;SDS011;5437;50.852;4.438;2023-04-03T04:05:03;7.63;;;6.82;;
10769;SDS011;5437;50.852;4.438;2023-04-03T04:07:29;8.18;;;6.45;;
10769;SDS011;5437;50.852;4.438;2023-04-03T04:09:55;7.28;;;6.57;;
10769;SDS011;5437;50.852;4.438;2023-04-03T04:12:22;7.63;;;6.65;;
10769;SDS011;5437;50.852;4.438;2023-04-03T04:14:49;7.32;;;6.40;;
10769;SDS011;5437;50.852;4.438;2023-04-03T04:17:15;6.95;;;6.25;;
10769;SDS011;5437;50.852;4.438;2023-04-03T04:19:41;8.15;;;6.75;;
10769;SDS011;5437;50.852;4.438;2023-04-03T04:22:07;9.85;;;7.20;;
10769;SDS011;5437;50.852;4.438;2023-04-03T04:24:33;8.02;;;7.13;;
10769;SDS011;5437;50.852;4.438;2023-04-03T04:26:59;8.63;;;7.22;;
10769;SDS011;5437;50.852;4.438;2023-04-03T04:29:25;7.18;;;6.47;;
10769;SDS011;5437;50.852;4.438;2023-04-03T04:31:51;8.88;;;6.95;;
10769;SDS011;5437;50.852;4.438;2023-04-03T04:34:17;8.43;;;6.65;;
10769;SDS011;5437;50.852;4.438;2023-04-03T04:36:43;7.65;;;6.88;;
10769;SDS011;5437;50.852;4.438;2023-04-03T04:39:09;8.93;;;6.88;;
10769;SDS011;5437;50.852;4.438;2023-04-03T04:41:35;8.23;;;7.35;;
10769;SDS011;5437;50.852;4.438;2023-04-03T04:44:02;9.35;;;7.20;;
10769;SDS011;5437;50.852;4.438;2023-04-03T04:46:28;10.48;;;7.72;;
10769;SDS011;5437;50.852;4.438;2023-04-03T04:48:54;9.13;;;7.18;;
10769;SDS011;5437;50.852;4.438;2023-04-03T04:51:20;11.25;;;7.43;;
10769;SDS011;5437;50.852;4.438;2023-04-03T04:53:46;8.90;;;7.57;;
10769;SDS011;5437;50.852;4.438;2023-04-03T04:56:12;8.43;;;7.60;;
10769;SDS011;5437;50.852;4.438;2023-04-03T04:58:38;9.18;;;8.05;;
10769;SDS011;5437;50.852;4.438;2023-04-03T05:01:05;9.00;;;7.78;;
10769;SDS011;5437;50.852;4.438;2023-04-03T05:03:32;8.80;;;7.47;;
10769;SDS011;5437;50.852;4.438;2023-04-03T05:05:58;11.18;;;8.15;;
10769;SDS011;5437;50.852;4.438;2023-04-03T05:08:24;11.55;;;7.97;;
10769;SDS011;5437;50.852;4.438;2023-04-03T05:10:50;8.50;;;7.60;;
10769;SDS011;5437;50.852;4.438;2023-04-03T05:13:16;9.93;;;7.97;;
10769;SDS011;5437;50.852;4.438;2023-04-03T05:15:42;8.90;;;8.05;;
10769;SDS011;5437;50.852;4.438;2023-04-03T05:18:08;9.57;;;8.18;;
10769;SDS011;5437;50.852;4.438;2023-04-03T05:20:34;9.90;;;7.82;;
10769;SDS011;5437;50.852;4.438;2023-04-03T05:23:01;11.05;;;8.35;;
10769;SDS011;5437;50.852;4.438;2023-04-03T05:25:28;10.52;;;8.52;;
10769;SDS011;5437;50.852;4.438;2023-04-03T05:27:54;9.65;;;8.65;;
10769;SDS011;5437;50.852;4.438;2023-04-03T05:30:21;8.98;;;7.72;;
10769;SDS011;5437;50.852;4.438;2023-04-03T05:32:47;10.95;;;8.20;;
10769;SDS011;5437;50.852;4.438;2023-04-03T05:35:13;10.80;;;8.68;;
10769;SDS011;5437;50.852;4.438;2023-04-03T05:37:39;10.65;;;8.32;;
10769;SDS011;5437;50.852;4.438;2023-04-03T05:40:06;9.02;;;7.65;;
10769;SDS011;5437;50.852;4.438;2023-04-03T05:42:32;9.60;;;8.30;;
10769;SDS011;5437;50.852;4.438;2023-04-03T05:44:59;9.85;;;8.85;;
10769;SDS011;5437;50.852;4.438;2023-04-03T05:47:25;10.93;;;8.70;;
10769;SDS011;5437;50.852;4.438;2023-04-03T05:49:51;11.13;;;9.73;;
10769;SDS011;5437;50.852;4.438;2023-04-03T05:52:20;11.13;;;9.25;;
10769;SDS011;5437;50.852;4.438;2023-04-03T05:54:46;10.57;;;9.48;;
10769;SDS011;5437;50.852;4.438;2023-04-03T05:57:13;11.32;;;9.20;;
10769;SDS011;5437;50.852;4.438;2023-04-03T05:59:39;11.85;;;9.45;;
10769;SDS011;5437;50.852;4.438;2023-04-03T06:02:05;12.32;;;9.68;;
10769;SDS011;5437;50.852;4.438;2023-04-03T06:04:32;10.75;;;9.50;;
10769;SDS011;5437;50.852;4.438;2023-04-03T06:06:58;9.88;;;8.85;;
10769;SDS011;5437;50.852;4.438;2023-04-03T06:09:25;11.73;;;10.18;;
10769;SDS011;5437;50.852;4.438;2023-04-03T06:11:52;12.82;;;10.00;;
10769;SDS011;5437;50.852;4.438;2023-04-03T06:14:18;10.80;;;9.68;;
10769;SDS011;5437;50.852;4.438;2023-04-03T06:16:45;11.77;;;9.85;;
10769;SDS011;5437;50.852;4.438;2023-04-03T06:19:11;11.55;;;10.27;;
10769;SDS011;5437;50.852;4.438;2023-04-03T06:21:38;12.15;;;9.38;;
10769;SDS011;5437;50.852;4.438;2023-04-03T06:24:04;12.73;;;10.02;;
10769;SDS011;5437;50.852;4.438;2023-04-03T06:26:31;11.23;;;9.70;;
10769;SDS011;5437;50.852;4.438;2023-04-03T06:28:58;12.43;;;10.27;;
10769;SDS011;5437;50.852;4.438;2023-04-03T06:31:24;11.90;;;10.18;;
10769;SDS011;5437;50.852;4.438;2023-04-03T06:33:50;10.55;;;9.55;;
10769;SDS011;5437;50.852;4.438;2023-04-03T06:36:17;12.70;;;10.00;;
10769;SDS011;5437;50.852;4.438;2023-04-03T06:38:45;11.27;;;9.77;;
10769;SDS011;5437;50.852;4.438;2023-04-03T06:41:11;14.65;;;10.30;;
10769;SDS011;5437;50.852;4.438;2023-04-03T06:43:37;11.85;;;10.40;;
10769;SDS011;5437;50.852;4.438;2023-04-03T06:46:04;13.38;;;10.00;;
10769;SDS011;5437;50.852;4.438;2023-04-03T06:48:30;11.55;;;9.48;;
10769;SDS011;5437;50.852;4.438;2023-04-03T06:50:56;11.35;;;9.57;;
10769;SDS011;5437;50.852;4.438;2023-04-03T06:53:22;11.13;;;9.82;;
10769;SDS011;5437;50.852;4.438;2023-04-03T06:55:48;11.93;;;9.75;;
10769;SDS011;5437;50.852;4.438;2023-04-03T06:58:15;10.55;;;9.55;;
10769;SDS011;5437;50.852;4.438;2023-04-03T07:00:42;12.85;;;10.80;;
10769;SDS011;5437;50.852;4.438;2023-04-03T07:03:08;13.63;;;9.90;;
10769;SDS011;5437;50.852;4.438;2023-04-03T07:05:34;11.75;;;10.05;;
10769;SDS011;5437;50.852;4.438;2023-04-03T07:08:00;12.48;;;9.77;;
10769;SDS011;5437;50.852;4.438;2023-04-03T07:10:26;11.48;;;10.23;;
10769;SDS011;5437;50.852;4.438;2023-04-03T07:12:52;13.30;;;9.70;;
10769;SDS011;5437;50.852;4.438;2023-04-03T07:15:18;11.95;;;9.77;;
10769;SDS011;5437;50.852;4.438;2023-04-03T07:17:44;12.23;;;10.20;;
10769;SDS011;5437;50.852;4.438;2023-04-03T07:20:11;12.32;;;10.27;;
10769;SDS011;5437;50.852;4.438;2023-04-03T07:22:37;12.05;;;10.00;;
10769;SDS011;5437;50.852;4.438;2023-04-03T07:25:03;11.07;;;9.85;;
10769;SDS011;5437;50.852;4.438;2023-04-03T07:27:32;12.25;;;10.40;;
10769;SDS011;5437;50.852;4.438;2023-04-03T07:29:58;11.73;;;9.48;;
10769;SDS011;5437;50.852;4.438;2023-04-03T07:32:24;10.00;;;8.95;;
10769;SDS011;5437;50.852;4.438;2023-04-03T07:34:50;9.98;;;8.82;;
10769;SDS011;5437;50.852;4.438;2023-04-03T07:37:17;9.98;;;9.07;;
10769;SDS011;5437;50.852;4.438;2023-04-03T07:39:43;10.30;;;9.15;;
10769;SDS011;5437;50.852;4.438;2023-04-03T07:42:10;10.80;;;9.68;;
10769;SDS011;5437;50.852;4.438;2023-04-03T07:44:37;12.43;;;10.02;;
10769;SDS011;5437;50.852;4.438;2023-04-03T07:47:03;10.45;;;9.10;;
10769;SDS011;5437;50.852;4.438;2023-04-03T07:49:29;12.77;;;9.90;;
10769;SDS011;5437;50.852;4.438;2023-04-03T07:51:56;11.45;;;8.75;;
10769;SDS011;5437;50.852;4.438;2023-04-03T07:54:22;10.13;;;7.93;;
10769;SDS011;5437;50.852;4.438;2023-04-03T07:56:48;10.65;;;8.23;;
10769;SDS011;5437;50.852;4.438;2023-04-03T07:59:14;9.43;;;7.05;;
10769;SDS011;5437;50.852;4.438;2023-04-03T08:01:40;8.73;;;7.32;;
10769;SDS011;5437;50.852;4.438;2023-04-03T08:04:06;8.07;;;6.63;;
10769;SDS011;5437;50.852;4.438;2023-04-03T08:06:32;7.22;;;6.43;;
10769;SDS011;5437;50.852;4.438;2023-04-03T08:09:01;6.82;;;5.85;;
10769;SDS011;5437;50.852;4.438;2023-04-03T08:11:28;6.40;;;5.80;;
10769;SDS011;5437;50.852;4.438;2023-04-03T08:13:55;7.80;;;6.13;;
10769;SDS011;5437;50.852;4.438;2023-04-03T08:16:22;6.45;;;5.63;;
10769;SDS011;5437;50.852;4.438;2023-04-03T08:18:51;12.93;;;11.50;;
10769;SDS011;5437;50.852;4.438;2023-04-03T08:21:18;9.73;;;8.13;;
10769;SDS011;5437;50.852;4.438;2023-04-03T08:23:44;8.80;;;7.75;;
10769;SDS011;5437;50.852;4.438;2023-04-03T08:26:16;5.60;;;5.10;;
10769;SDS011;5437;50.852;4.438;2023-04-03T08:28:43;7.43;;;5.60;;
10769;SDS011;5437;50.852;4.438;2023-04-03T08:31:10;6.93;;;5.25;;
10769;SDS011;5437;50.852;4.438;2023-04-03T08:33:37;6.25;;;5.50;;
10769;SDS011;5437;50.852;4.438;2023-04-03T08:36:03;5.97;;;5.03;;
10769;SDS011;5437;50.852;4.438;2023-04-03T08:38:30;5.32;;;4.82;;
10769;SDS011;5437;50.852;4.438;2023-04-03T08:40:59;5.60;;;4.97;;
10769;SDS011;5437;50.852;4.438;2023-04-03T08:43:36;6.25;;;4.90;;
10769;SDS011;5437;50.852;4.438;2023-04-03T08:46:05;6.43;;;4.55;;
10769;SDS011;5437;50.852;4.438;2023-04-03T08:48:33;5.68;;;4.90;;
10769;SDS011;5437;50.852;4.438;2023-04-03T08:51:02;5.35;;;4.82;;
10769;SDS011;5437;50.852;4.438;2023-04-03T08:53:30;4.80;;;4.28;;
10769;SDS011;5437;50.852;4.438;2023-04-03T08:55:57;5.28;;;4.50;;
10769;SDS011;5437;50.852;4.438;2023-04-03T08:58:35;5.70;;;4.55;;
10769;SDS011;5437;50.852;4.438;2023-04-03T09:01:05;5.30;;;4.35;;
10769;SDS011;5437;50.852;4.438;2023-04-03T09:03:34;4.97;;;4.20;;
10769;SDS011;5437;50.852;4.438;2023-04-03T09:08:28;7.35;;;6.07;;
10769;SDS011;5437;50.852;4.438;2023-04-03T09:11:03;5.35;;;4.15;;
10769;SDS011;5437;50.852;4.438;2023-04-03T09:13:36;6.25;;;3.70;;
10769;SDS011;5437;50.852;4.438;2023-04-03T09:16:12;4.82;;;3.55;;
10769;SDS011;5437;50.852;4.438;2023-04-03T09:18:41;5.32;;;4.82;;
10769;SDS011;5437;50.852;4.438;2023-04-03T09:21:20;4.65;;;3.20;;
10769;SDS011;5437;50.852;4.438;2023-04-03T09:23:51;4.05;;;3.38;;
10769;SDS011;5437;50.852;4.438;2023-04-03T09:26:23;4.82;;;4.00;;
10769;SDS011;5437;50.852;4.438;2023-04-03T09:28:51;3.88;;;3.03;;
10769;SDS011;5437;50.852;4.438;2023-04-03T09:31:24;3.10;;;2.65;;
10769;SDS011;5437;50.852;4.438;2023-04-03T09:33:50;5.25;;;3.28;;
10769;SDS011;5437;50.852;4.438;2023-04-03T09:39:04;4.45;;;2.70;;
10769;SDS011;5437;50.852;4.438;2023-04-03T09:41:30;2.85;;;2.50;;
10769;SDS011;5437;50.852;4.438;2023-04-03T09:43:58;3.72;;;2.70;;
10769;SDS011;5437;50.852;4.438;2023-04-03T09:46:26;3.03;;;2.65;;
10769;SDS011;5437;50.852;4.438;2023-04-03T09:48:58;3.85;;;2.70;;
10769;SDS011;5437;50.852;4.438;2023-04-03T09:51:25;4.93;;;2.92;;
10769;SDS011;5437;50.852;4.438;2023-04-03T09:53:52;3.78;;;2.45;;
10769;SDS011;5437;50.852;4.438;2023-04-03T09:58:49;2.70;;;2.03;;
10769;SDS011;5437;50.852;4.438;2023-04-03T10:01:28;4.63;;;2.63;;
10769;SDS011;5437;50.852;4.438;2023-04-03T10:06:41;2.95;;;1.98;;
10769;SDS011;5437;50.852;4.438;2023-04-03T10:09:19;2.20;;;1.75;;
10769;SDS011;5437;50.852;4.438;2023-04-03T10:14:31;2.85;;;2.17;;
10769;SDS011;5437;50.852;4.438;2023-04-03T10:35:25;3.22;;;2.30;;
10769;SDS011;5437;50.852;4.438;2023-04-03T10:40:47;5.60;;;2.20;;
10769;SDS011;5437;50.852;4.438;2023-04-03T10:48:18;3.63;;;2.00;;
10769;SDS011;5437;50.852;4.438;2023-04-03T10:53:40;2.03;;;1.80;;
10769;SDS011;5437;50.852;4.438;2023-04-03T10:58:50;2.55;;;1.70;;
10769;SDS011;5437;50.852;4.438;2023-04-03T11:01:23;2.70;;;1.60;;
10769;SDS011;5437;50.852;4.438;2023-04-03T11:03:54;2.45;;;1.70;;
10769;SDS011;5437;50.852;4.438;2023-04-03T11:06:23;3.88;;;1.83;;
10769;SDS011;5437;50.852;4.438;2023-04-03T11:08:54;2.08;;;1.70;;
10769;SDS011;5437;50.852;4.438;2023-04-03T11:11:32;5.57;;;1.90;;
10769;SDS011;5437;50.852;4.438;2023-04-03T11:16:46;3.22;;;1.70;;
10769;SDS011;5437;50.852;4.438;2023-04-03T11:19:17;1.60;;;1.50;;
10769;SDS011;5437;50.852;4.438;2023-04-03T11:22:09;3.63;;;1.90;;
10769;SDS011;5437;50.852;4.438;2023-04-03T11:24:33;2.60;;;1.70;;
10769;SDS011;5437;50.852;4.438;2023-04-03T11:27:00;2.42;;;1.50;;
10769;SDS011;5437;50.852;4.438;2023-04-03T11:29:31;2.78;;;1.65;;
10769;SDS011;5437;50.852;4.438;2023-04-03T11:34:49;2.92;;;1.80;;
10769;SDS011;5437;50.852;4.438;2023-04-03T11:37:25;2.67;;;1.67;;
10769;SDS011;5437;50.852;4.438;2023-04-03T11:39:57;4.07;;;1.90;;
10769;SDS011;5437;50.852;4.438;2023-04-03T11:42:38;2.45;;;1.77;;
10769;SDS011;5437;50.852;4.438;2023-04-03T11:47:50;4.28;;;1.80;;
10769;SDS011;5437;50.852;4.438;2023-04-03T11:50:38;2.60;;;1.83;;
10769;SDS011;5437;50.852;4.438;2023-04-03T12:08:25;2.10;;;1.90;;
10769;SDS011;5437;50.852;4.438;2023-04-03T12:13:42;2.00;;;1.80;;
10769;SDS011;5437;50.852;4.438;2023-04-03T12:19:04;1.75;;;1.50;;
10769;SDS011;5437;50.852;4.438;2023-04-03T12:24:03;3.45;;;1.70;;
10769;SDS011;5437;50.852;4.438;2023-04-03T12:26:44;5.10;;;3.25;;
10769;SDS011;5437;50.852;4.438;2023-04-03T12:34:33;2.35;;;1.42;;
10769;SDS011;5437;50.852;4.438;2023-04-03T12:37:08;2.60;;;1.90;;
10769;SDS011;5437;50.852;4.438;2023-04-03T12:42:12;2.15;;;1.58;;
10769;SDS011;5437;50.852;4.438;2023-04-03T12:47:39;1.58;;;1.42;;
10769;SDS011;5437;50.852;4.438;2023-04-03T12:50:18;2.42;;;1.40;;
10769;SDS011;5437;50.852;4.438;2023-04-03T12:52:47;3.05;;;1.83;;
10769;SDS011;5437;50.852;4.438;2023-04-03T12:55:19;1.85;;;1.50;;
10769;SDS011;5437;50.852;4.438;2023-04-03T12:57:45;2.35;;;1.50;;
10769;SDS011;5437;50.852;4.438;2023-04-03T13:00:33;1.50;;;1.40;;
10769;SDS011;5437;50.852;4.438;2023-04-03T13:02:59;2.47;;;1.45;;
10769;SDS011;5437;50.852;4.438;2023-04-03T13:05:25;2.17;;;1.30;;
10769;SDS011;5437;50.852;4.438;2023-04-03T13:08:10;2.30;;;1.35;;
10769;SDS011;5437;50.852;4.438;2023-04-03T13:10:47;1.90;;;1.50;;
10769;SDS011;5437;50.852;4.438;2023-04-03T13:13:15;2.05;;;1.50;;
10769;SDS011;5437;50.852;4.438;2023-04-03T13:15:45;2.35;;;1.30;;
10769;SDS011;5437;50.852;4.438;2023-04-03T13:18:30;3.08;;;1.20;;
10769;SDS011;5437;50.852;4.438;2023-04-03T13:20:58;4.05;;;1.60;;
10769;SDS011;5437;50.852;4.438;2023-04-03T13:23:25;2.05;;;1.30;;
10769;SDS011;5437;50.852;4.438;2023-04-03T13:25:52;3.15;;;1.40;;
10769;SDS011;5437;50.852;4.438;2023-04-03T13:28:20;2.15;;;1.50;;
10769;SDS011;5437;50.852;4.438;2023-04-03T13:33:33;2.25;;;2.05;;
10769;SDS011;5437;50.852;4.438;2023-04-03T13:38:30;1.65;;;1.52;;
10769;SDS011;5437;50.852;4.438;2023-04-03T13:40:58;4.28;;;1.88;;
10769;SDS011;5437;50.852;4.438;2023-04-03T13:43:34;2.90;;;1.92;;
10769;SDS011;5437;50.852;4.438;2023-04-03T13:48:37;2.40;;;1.80;;
10769;SDS011;5437;50.852;4.438;2023-04-03T13:51:04;1.80;;;1.50;;
10769;SDS011;5437;50.852;4.438;2023-04-03T13:53:31;1.88;;;1.60;;
10769;SDS011;5437;50.852;4.438;2023-04-03T13:58:30;2.80;;;1.75;;
10769;SDS011;5437;50.852;4.438;2023-04-03T14:03:33;2.40;;;1.63;;
10769;SDS011;5437;50.852;4.438;2023-04-03T14:06:06;2.88;;;1.70;;
10769;SDS011;5437;50.852;4.438;2023-04-03T14:08:32;3.92;;;1.60;;
10769;SDS011;5437;50.852;4.438;2023-04-03T14:10:58;4.13;;;1.67;;
10769;SDS011;5437;50.852;4.438;2023-04-03T14:13:25;1.50;;;1.13;;
10769;SDS011;5437;50.852;4.438;2023-04-03T14:15:51;3.22;;;1.70;;
10769;SDS011;5437;50.852;4.438;2023-04-03T14:18:18;1.92;;;1.40;;
10769;SDS011;5437;50.852;4.438;2023-04-03T14:20:46;3.53;;;1.80;;
10769;SDS011;5437;50.852;4.438;2023-04-03T14:23:12;4.40;;;1.70;;
10769;SDS011;5437;50.852;4.438;2023-04-03T14:25:38;4.22;;;1.70;;
10769;SDS011;5437;50.852;4.438;2023-04-03T14:28:19;3.05;;;1.63;;
10769;SDS011;5437;50.852;4.438;2023-04-03T14:30:46;1.92;;;1.40;;
10769;SDS011;5437;50.852;4.438;2023-04-03T14:33:13;3.13;;;1.40;;
10769;SDS011;5437;50.852;4.438;2023-04-03T14:35:40;2.92;;;1.60;;
10769;SDS011;5437;50.852;4.438;2023-04-03T14:38:20;1.77;;;1.30;;
10769;SDS011;5437;50.852;4.438;2023-04-03T14:40:46;1.75;;;1.48;;
10769;SDS011;5437;50.852;4.438;2023-04-03T14:43:12;2.08;;;1.52;;
10769;SDS011;5437;50.852;4.438;2023-04-03T14:45:40;2.15;;;1.75;;
10769;SDS011;5437;50.852;4.438;2023-04-03T14:48:06;2.90;;;1.40;;
10769;SDS011;5437;50.852;4.438;2023-04-03T14:50:35;2.63;;;1.42;;
10769;SDS011;5437;50.852;4.438;2023-04-03T14:53:01;3.00;;;2.53;;
10769;SDS011;5437;50.852;4.438;2023-04-03T14:55:27;2.78;;;1.48;;
10769;SDS011;5437;50.852;4.438;2023-04-03T14:57:53;1.77;;;1.45;;
10769;SDS011;5437;50.852;4.438;2023-04-03T15:00:20;3.45;;;1.73;;
10769;SDS011;5437;50.852;4.438;2023-04-03T15:02:47;1.30;;;1.20;;
10769;SDS011;5437;50.852;4.438;2023-04-03T15:05:13;1.42;;;1.27;;
10769;SDS011;5437;50.852;4.438;2023-04-03T15:07:44;2.42;;;1.40;;
10769;SDS011;5437;50.852;4.438;2023-04-03T15:10:21;1.45;;;1.35;;
10769;SDS011;5437;50.852;4.438;2023-04-03T15:12:48;3.17;;;1.60;;
10769;SDS011;5437;50.852;4.438;2023-04-03T15:15:15;2.70;;;1.50;;
10769;SDS011;5437;50.852;4.438;2023-04-03T15:17:41;3.25;;;1.40;;
10769;SDS011;5437;50.852;4.438;2023-04-03T15:20:12;2.55;;;1.35;;
10769;SDS011;5437;50.852;4.438;2023-04-03T15:22:38;2.17;;;1.60;;
10769;SDS011;5437;50.852;4.438;2023-04-03T15:25:05;2.25;;;1.70;;
10769;SDS011;5437;50.852;4.438;2023-04-03T15:27:31;1.85;;;1.40;;
10769;SDS011;5437;50.852;4.438;2023-04-03T15:29:57;2.15;;;1.50;;
10769;SDS011;5437;50.852;4.438;2023-04-03T15:32:23;2.15;;;1.42;;
10769;SDS011;5437;50.852;4.438;2023-04-03T15:34:49;2.28;;;1.60;;
10769;SDS011;5437;50.852;4.438;2023-04-03T15:37:15;2.20;;;1.48;;
10769;SDS011;5437;50.852;4.438;2023-04-03T15:39:41;1.40;;;1.30;;
10769;SDS011;5437;50.852;4.438;2023-04-03T15:42:07;3.35;;;1.55;;
10769;SDS011;5437;50.852;4.438;2023-04-03T15:44:33;2.03;;;1.60;;
10769;SDS011;5437;50.852;4.438;2023-04-03T15:46:59;2.55;;;1.80;;
10769;SDS011;5437;50.852;4.438;2023-04-03T15:49:26;2.67;;;1.52;;
10769;SDS011;5437;50.852;4.438;2023-04-03T15:51:53;4.30;;;1.77;;
10769;SDS011;5437;50.852;4.438;2023-04-03T15:54:19;2.42;;;1.65;;
10769;SDS011;5437;50.852;4.438;2023-04-03T15:56:45;3.85;;;1.63;;
10769;SDS011;5437;50.852;4.438;2023-04-03T15:59:11;3.35;;;1.88;;
10769;SDS011;5437;50.852;4.438;2023-04-03T16:01:37;2.88;;;2.22;;
10769;SDS011;5437;50.852;4.438;2023-04-03T16:04:04;2.80;;;1.90;;
10769;SDS011;5437;50.852;4.438;2023-04-03T16:06:30;2.10;;;1.67;;
10769;SDS011;5437;50.852;4.438;2023-04-03T16:08:58;4.00;;;1.83;;
10769;SDS011;5437;50.852;4.438;2023-04-03T16:11:24;1.88;;;1.70;;
10769;SDS011;5437;50.852;4.438;2023-04-03T16:13:51;3.10;;;2.08;;
10769;SDS011;5437;50.852;4.438;2023-04-03T16:16:17;3.00;;;1.98;;
10769;SDS011;5437;50.852;4.438;2023-04-03T16:18:43;2.13;;;1.60;;
10769;SDS011;5437;50.852;4.438;2023-04-03T16:21:09;4.60;;;2.00;;
10769;SDS011;5437;50.852;4.438;2023-04-03T16:23:35;2.17;;;1.98;;
10769;SDS011;5437;50.852;4.438;2023-04-03T16:26:01;2.67;;;2.08;;
10769;SDS011;5437;50.852;4.438;2023-04-03T16:28:27;2.25;;;1.88;;
10769;SDS011;5437;50.852;4.438;2023-04-03T16:30:53;2.25;;;1.90;;
10769;SDS011;5437;50.852;4.438;2023-04-03T16:33:20;3.22;;;2.05;;
10769;SDS011;5437;50.852;4.438;2023-04-03T16:35:47;2.45;;;2.05;;
10769;SDS011;5437;50.852;4.438;2023-04-03T16:38:13;2.47;;;1.88;;
10769;SDS011;5437;50.852;4.438;2023-04-03T16:40:40;2.35;;;1.83;;
10769;SDS011;5437;50.852;4.438;2023-04-03T16:43:06;2.35;;;2.00;;
10769;SDS011;5437;50.852;4.438;2023-04-03T16:45:32;2.90;;;2.10;;
10769;SDS011;5437;50.852;4.438;2023-04-03T16:47:58;3.33;;;2.40;;
10769;SDS011;5437;50.852;4.438;2023-04-03T16:50:24;3.38;;;2.17;;